Kystovka, Russia
Current Conditions -  °F | °C
As of 12:30 PM on Friday 31 Oct 2014 (Local Time) from UNOO Reporting Station
Overcast Overcast  
Wind Chill: 28°   Ceiling: 900
Heat Index: 36°   Visibility: 5mi
Dew Point: 32°   Wind: 11mph
Humidity: 87%   Direction: 270°W
Pressure: 30.18"   Gusts: NA
Location:  56.6°N, 76.9°E
Report Text: UNOO 310530Z 27005MPS 8000 BKN009 OVC033 02/00 Q1022 25290050NOSIG RMK OBST PT OBSC QFE758
Loading
Personal Weather Stations






























Interactive Weather Map
Tropical Storm Tracking
New forecast layout! Learn more

10-Day Weather Forecast

Advertisements
Track Severe Weather on mobile